Time;durP1;ratioP1;P1;durP2;ratioP2;P2;SDS_P1;SDS_P2;PMS_P1;PMS_P2;Temp;Humidity;BMP_temperature;BMP_pressure;BME280_temperature;BME280_humidity;BME280_pressure;Samples;Min_cycle;Max_cycle;Signal;HPM_P1;HPM_P2
2022/04/01 00:01:22;;;;;;;;;;;;;;;1.15;86.97;99161.38;5062059;28;19915;-57
2022/04/01 00:03:47;;;;;;;;;;;;;;;0.96;86.64;99159.53;5062891;28;20105;-57
2022/04/01 00:06:12;;;;;;;;;;;;;;;1.02;87.45;99162.97;5062245;28;19908;-57
2022/04/01 00:08:38;;;;;;;;;;;;;;;1.14;86.44;99167.34;5069028;28;19908;-57
2022/04/01 00:11:03;;;;;;;;;;;;;;;1.23;86.33;99163.13;5067866;28;19909;-58
2022/04/01 00:13:28;;;;;;;;;;;;;;;1.31;85.88;99166.59;5062533;28;19920;-58
2022/04/01 00:15:54;;;;;;;;;;;;;;;1.24;85.63;99167.41;5061694;28;19913;-58
2022/04/01 00:18:19;;;;;;;;;;;;;;;1.34;85.65;99161.53;5062808;28;19919;-58
2022/04/01 00:20:45;;;;;;;;;;;;;;;1.04;86.23;99165.53;5061491;28;19929;-58
2022/04/01 00:23:12;;;;;;;;;;;;;;;1.13;86.20;99159.69;5062190;28;19947;-58
2022/04/01 00:25:39;;;;;;;;;;;;;;;1.01;86.94;99165.50;5062218;28;19916;-57
2022/04/01 00:28:04;;;;;;;;;;;;;;;1.13;86.75;99165.63;5062740;28;19908;-56
2022/04/01 00:30:30;;;;;;;;;;;;;;;1.01;87.04;99157.88;5062352;28;19916;-57
2022/04/01 00:32:55;;;;;;;;;;;;;;;0.98;87.15;99165.50;5062648;28;19909;-57
2022/04/01 00:35:21;;;;;;;;;;;;;;;1.10;86.72;99169.84;5062234;28;19924;-57
2022/04/01 00:37:46;;;;;;;;;;;;;;;1.34;86.32;99166.63;5062895;28;19909;-57
2022/04/01 00:40:12;;;;;;;;;;;;;;;1.32;85.90;99166.63;5062641;28;20215;-57
2022/04/01 00:42:38;;;;;;;;;;;;;;;1.24;85.99;99164.84;5062793;28;19917;-58
2022/04/01 00:45:04;;;;;;;;;;;;;;;0.88;86.96;99172.19;5062059;28;19931;-57
2022/04/01 00:47:30;;;;;;;;;;;;;;;0.86;87.05;99167.09;5061454;28;19909;-58
2022/04/01 00:49:55;;;;;;;;;;;;;;;0.91;87.44;99169.69;5062205;28;19983;-58
2022/04/01 00:52:22;;;;;;;;;;;;;;;0.94;86.87;99174.81;5061364;28;20478;-58
2022/04/01 00:54:49;;;;;;;;;;;;;;;1.05;87.19;99174.91;5062376;28;20109;-58
2022/04/01 00:57:14;;;;;;;;;;;;;;;0.89;87.81;99176.47;5061948;28;19983;-58
2022/04/01 00:59:40;;;;;;;;;;;;;;;1.02;87.38;99174.88;5061929;28;19908;-57
2022/04/01 01:02:08;;;;;;;;;;;;;;;0.83;87.79;99177.25;5061688;28;20140;-58
2022/04/01 01:04:34;;;;;;;;;;;;;;;0.94;88.20;99179.03;5061961;28;19953;-58
2022/04/01 01:07:00;;;;;;;;;;;;;;;1.05;87.33;99187.66;5061851;28;20002;-58
2022/04/01 01:09:26;;;;;;;;;;;;;;;1.15;87.56;99186.88;5062066;28;20034;-58
2022/04/01 01:11:52;;;;;;;;;;;;;;;1.23;87.29;99186.09;5062140;28;19913;-57
2022/04/01 01:14:24;;;;;;;;;;;;;;;1.23;86.84;99194.63;5061620;28;19935;-57
2022/04/01 01:16:49;;;;;;;;;;;;;;;1.37;86.35;99185.38;5060996;28;19912;-58
2022/04/01 01:19:18;;;;;;;;;;;;;;;1.33;85.96;99188.75;5062293;28;19940;-57
2022/04/01 01:21:50;;;;;;;;;;;;;;;1.28;85.91;99182.72;5061512;28;19908;-57
2022/04/01 01:24:16;;;;;;;;;;;;;;;1.33;86.21;99185.34;5061626;28;19916;-57
2022/04/01 01:26:44;;;;;;;;;;;;;;;1.30;86.07;99188.72;5061413;28;19916;-57
2022/04/01 01:29:10;;;;;;;;;;;;;;;1.38;85.68;99189.63;5061569;28;19915;-58
2022/04/01 01:31:35;;;;;;;;;;;;;;;1.49;85.43;99184.59;5061717;28;19909;-58
2022/04/01 01:34:01;;;;;;;;;;;;;;;1.35;85.20;99186.19;5061858;28;20047;-58
2022/04/01 01:36:28;;;;;;;;;;;;;;;1.42;85.46;99187.09;5060448;28;19931;-57
2022/04/01 01:38:53;;;;;;;;;;;;;;;1.28;84.96;99189.53;5065412;28;19909;-58
2022/04/01 01:41:19;;;;;;;;;;;;;;;1.24;86.04;99192.91;5065654;28;20462;-57
2022/04/01 01:43:44;;;;;;;;;;;;;;;1.27;85.95;99198.03;5065937;28;19909;-57
2022/04/01 01:46:10;;;;;;;;;;;;;;;1.37;85.33;99197.28;5065038;28;19920;-57
2022/04/01 01:48:36;;;;;;;;;;;;;;;1.39;85.31;99198.13;5065596;28;20197;-58
2022/04/01 01:56:29;;;;;;;;;;;;;;;0.79;86.78;99206.09;5065362;28;19916;-57
2022/04/01 01:58:54;;;;;;;;;;;;;;;0.96;86.88;99198.63;5065104;28;19909;-57
2022/04/01 02:01:20;;;;;;;;;;;;;;;0.92;86.88;99204.53;5064922;28;20153;-57
2022/04/01 02:03:45;;;;;;;;;;;;;;;0.83;87.43;99202.75;5065580;28;19931;-58
2022/04/01 02:06:11;;;;;;;;;;;;;;;0.84;87.27;99201.91;5065167;28;20153;-58
2022/04/01 02:08:36;;;;;;;;;;;;;;;0.78;87.33;99209.47;5065140;28;19979;-57
2022/04/01 02:11:02;;;;;;;;;;;;;;;0.82;86.99;99208.69;5063862;28;19909;-57
2022/04/01 02:13:28;;;;;;;;;;;;;;;0.80;86.98;99207.81;5065152;28;19916;-56
2022/04/01 02:15:53;;;;;;;;;;;;;;;0.68;87.36;99212.78;5065010;28;20022;-57
2022/04/01 02:18:20;;;;;;;;;;;;;;;0.80;86.83;99214.63;5064774;28;19920;-58
2022/04/01 02:20:46;;;;;;;;;;;;;;;0.73;86.93;99215.38;5065009;28;20074;-57
2022/04/01 02:23:11;;;;;;;;;;;;;;;0.73;87.34;99216.25;5059178;28;19936;-59
2022/04/01 02:25:37;;;;;;;;;;;;;;;0.73;87.67;99215.38;5067649;28;20028;-57
2022/04/01 02:28:03;;;;;;;;;;;;;;;0.90;87.24;99220.63;5065086;28;19908;-58
2022/04/01 02:30:29;;;;;;;;;;;;;;;0.89;86.44;99221.50;5074265;28;19908;-59
2022/04/01 02:32:54;;;;;;;;;;;;;;;0.82;86.44;99223.13;5064654;28;19920;-59
2022/04/01 02:35:20;;;;;;;;;;;;;;;0.73;86.87;99231.53;5064531;28;19908;-59
2022/04/01 02:37:46;;;;;;;;;;;;;;;0.62;87.22;99228.00;5065020;28;20197;-59
2022/04/01 02:40:12;;;;;;;;;;;;;;;0.78;87.29;99221.38;5073152;28;19921;-59
2022/04/01 02:42:37;;;;;;;;;;;;;;;0.83;86.48;99222.28;5074274;28;19944;-59
2022/04/01 02:45:03;;;;;;;;;;;;;;;0.95;86.55;99219.84;5071819;28;19953;-59
2022/04/01 02:47:29;;;;;;;;;;;;;;;0.95;86.09;99224.94;5068820;28;19920;-59
2022/04/01 02:49:54;;;;;;;;;;;;;;;0.93;86.56;99225.78;5064049;28;19909;-59
2022/04/01 02:52:20;;;;;;;;;;;;;;;1.07;86.57;99224.22;5061322;28;19983;-59
2022/04/01 02:54:46;;;;;;;;;;;;;;;0.96;86.30;99223.28;5054904;28;19940;-58
2022/04/01 02:57:12;;;;;;;;;;;;;;;1.05;86.15;99228.44;5058909;28;20169;-58
2022/04/01 02:59:37;;;;;;;;;;;;;;;0.96;85.88;99228.38;5063150;28;20105;-58
2022/04/01 03:02:03;;;;;;;;;;;;;;;1.06;85.91;99237.81;5063570;28;20224;-59
2022/04/01 03:04:28;;;;;;;;;;;;;;;0.72;86.24;99229.81;5064408;28;19919;-59
2022/04/01 03:06:54;;;;;;;;;;;;;;;0.86;86.58;99235.06;5063374;28;19908;-58
2022/04/01 03:09:19;;;;;;;;;;;;;;;0.89;86.44;99231.69;5064011;28;20216;-61
2022/04/01 03:11:45;;;;;;;;;;;;;;;0.81;86.36;99234.16;5063894;28;19916;-57
2022/04/01 03:14:11;;;;;;;;;;;;;;;0.75;86.22;99244.28;5063686;28;19947;-58
2022/04/01 03:16:38;;;;;;;;;;;;;;;0.71;87.03;99251.03;5062488;28;19912;-59
2022/04/01 03:19:04;;;;;;;;;;;;;;;0.72;86.31;99247.66;5052002;28;19912;-58
2022/04/01 03:21:29;;;;;;;;;;;;;;;0.74;86.10;99246.00;5052165;28;19944;-57
2022/04/01 03:23:55;;;;;;;;;;;;;;;0.75;86.34;99241.75;5063037;28;19924;-57
2022/04/01 03:26:21;;;;;;;;;;;;;;;0.80;86.19;99246.06;5064125;28;19951;-58
2022/04/01 03:28:46;;;;;;;;;;;;;;;0.82;85.91;99248.63;5062532;28;19909;-60
2022/04/01 03:31:14;;;;;;;;;;;;;;;0.75;85.63;99250.22;5063333;28;19909;-58
2022/04/01 03:33:39;;;;;;;;;;;;;;;0.85;85.27;99249.47;5063814;28;19915;-58
2022/04/01 03:36:04;;;;;;;;;;;;;;;0.88;84.93;99245.28;5063110;28;19909;-59
2022/04/01 03:38:31;;;;;;;;;;;;;;;0.89;85.34;99257.19;5063611;28;19908;-59
2022/04/01 03:40:57;;;;;;;;;;;;;;;0.74;85.43;99251.09;5063311;28;19915;-59
2022/04/01 03:43:24;;;;;;;;;;;;;;;0.88;85.16;99250.38;5063008;28;19916;-59
2022/04/01 03:45:50;;;;;;;;;;;;;;;0.86;85.20;99245.25;5063528;28;19940;-59
2022/04/01 03:48:23;;;;;;;;;;;;;;;0.73;85.23;99254.47;5063331;28;20215;-59
2022/04/01 03:50:52;;;;;;;;;;;;;;;0.60;85.22;99250.06;5063463;28;19909;-59
2022/04/01 03:53:23;;;;;;;;;;;;;;;0.58;86.07;99255.13;5067605;28;19984;-62
2022/04/01 03:55:50;;;;;;;;;;;;;;;0.32;85.76;99253.13;5063022;28;19917;-59
2022/04/01 03:58:18;;;;;;;;;;;;;;;0.40;86.00;99260.88;5063977;28;19946;-59
2022/04/01 04:00:43;;;;;;;;;;;;;;;0.28;86.51;99264.09;5062074;28;19966;-59
2022/04/01 04:03:10;;;;;;;;;;;;;;;0.25;86.54;99266.59;5064002;28;20210;-56
2022/04/01 04:05:36;;;;;;;;;;;;;;;0.22;86.16;99264.03;5063912;28;19909;-57
2022/04/01 04:08:02;;;;;;;;;;;;;;;0.28;86.48;99258.16;5063863;28;19928;-57
2022/04/01 04:10:29;;;;;;;;;;;;;;;0.36;86.73;99266.75;5063791;28;19944;-57
2022/04/01 04:12:57;;;;;;;;;;;;;;;0.34;86.70;99259.09;5063816;28;19947;-57
2022/04/01 04:15:26;;;;;;;;;;;;;;;0.33;85.85;99259.09;5063811;28;19958;-57
2022/04/01 04:17:54;;;;;;;;;;;;;;;0.27;85.89;99264.09;5073493;28;20232;-57
2022/04/01 04:20:33;;;;;;;;;;;;;;;0.34;86.51;99261.66;5067016;28;19920;-57
2022/04/01 04:22:59;;;;;;;;;;;;;;;0.46;85.33;99260.94;5071688;28;19926;-57
2022/04/01 04:25:34;;;;;;;;;;;;;;;0.48;85.64;99268.59;5074396;28;19936;-57
2022/04/01 04:28:00;;;;;;;;;;;;;;;0.31;85.54;99263.28;5072273;28;19954;-56
2022/04/01 04:30:32;;;;;;;;;;;;;;;0.44;86.06;99265.19;5062984;28;19909;-56
2022/04/01 04:33:04;;;;;;;;;;;;;;;0.26;85.59;99275.97;5070870;28;20101;-56
2022/04/01 04:35:29;;;;;;;;;;;;;;;0.33;86.16;99262.47;5063194;28;19913;-56
2022/04/01 04:37:56;;;;;;;;;;;;;;;0.28;86.88;99276.84;5064499;28;19908;-56
2022/04/01 04:40:21;;;;;;;;;;;;;;;0.27;86.62;99287.00;5064574;28;19921;-56
2022/04/01 04:42:50;;;;;;;;;;;;;;;0.24;85.45;99286.97;5072571;28;19923;-56
2022/04/01 04:45:16;;;;;;;;;;;;;;;0.26;86.17;99278.50;5070879;28;19987;-56
2022/04/01 04:47:42;;;;;;;;;;;;;;;0.29;85.10;99285.34;5070607;28;19908;-56
2022/04/01 04:50:08;;;;;;;;;;;;;;;0.35;85.82;99287.97;5062149;28;19967;-56
2022/04/01 04:52:34;;;;;;;;;;;;;;;0.25;85.44;99297.16;5061557;28;19930;-56
2022/04/01 04:55:01;;;;;;;;;;;;;;;0.15;86.48;99297.88;5062193;28;19979;-56
2022/04/01 04:57:27;;;;;;;;;;;;;;;0.30;85.56;99284.50;5061538;28;20257;-56
2022/04/01 04:59:53;;;;;;;;;;;;;;;0.07;85.29;99300.31;5061846;28;19923;-57
2022/04/01 05:02:40;;;;;;;;;;;;;;;0.12;85.39;99308.88;5061535;28;20212;-58
2022/04/01 05:05:41;;;;;;;;;;;;;;;0.27;85.11;99302.28;5061797;28;19909;-55
2022/04/01 05:08:26;;;;;;;;;;;;;;;0.39;84.63;99299.06;4980534;28;19922;-57
2022/04/01 05:11:12;;;;;;;;;;;;;;;0.58;84.61;99302.69;5026443;28;19913;-57
2022/04/01 05:13:43;;;;;;;;;;;;;;;0.49;84.20;99309.38;5053931;28;19919;-56
2022/04/01 05:16:17;;;;;;;;;;;;;;;0.71;84.04;99302.00;5070157;28;19928;-56
2022/04/01 05:18:50;;;;;;;;;;;;;;;0.58;83.46;99318.81;5068673;28;19925;-55
2022/04/01 05:21:20;;;;;;;;;;;;;;;0.54;83.26;99304.34;5073709;28;20547;-57
2022/04/01 05:24:01;;;;;;;;;;;;;;;0.76;83.63;99308.03;5063064;28;20109;-56
2022/04/01 05:26:42;;;;;;;;;;;;;;;0.87;82.64;99303.06;5069363;28;20187;-57
2022/04/01 05:29:25;;;;;;;;;;;;;;;0.71;82.88;99319.00;5079933;28;19916;-56
2022/04/01 05:31:56;;;;;;;;;;;;;;;0.37;82.96;99321.97;5046469;28;19909;-56
2022/04/01 05:34:44;;;;;;;;;;;;;;;0.48;83.17;99310.19;5055472;28;19917;-56
2022/04/01 05:37:11;;;;;;;;;;;;;;;0.49;83.28;99306.81;5061296;28;19909;-56
2022/04/01 05:39:38;;;;;;;;;;;;;;;0.68;82.80;99314.72;5061736;28;19916;-57
2022/04/01 05:42:04;;;;;;;;;;;;;;;0.62;82.76;99301.91;5060536;28;20149;-57
2022/04/01 05:44:32;;;;;;;;;;;;;;;0.62;82.84;99310.38;5061671;28;19995;-56
2022/04/01 05:46:58;;;;;;;;;;;;;;;0.73;82.50;99312.22;5062070;28;19909;-55
2022/04/01 05:49:24;;;;;;;;;;;;;;;0.67;82.52;99321.50;5062692;28;19915;-55
2022/04/01 05:51:49;;;;;;;;;;;;;;;0.61;82.67;99311.22;5062399;28;19916;-56
2022/04/01 05:54:15;;;;;;;;;;;;;;;0.75;82.80;99318.19;5075062;28;19909;-57
2022/04/01 05:56:44;;;;;;;;;;;;;;;0.67;82.98;99320.63;5062560;28;20074;-56
2022/04/01 05:59:11;;;;;;;;;;;;;;;0.80;81.87;99317.41;5042757;28;19947;-57
2022/04/01 06:01:36;;;;;;;;;;;;;;;0.65;82.20;99309.56;5058177;28;19992;-57
2022/04/01 06:04:01;;;;;;;;;;;;;;;0.58;83.19;99316.28;5062746;28;19955;-57
2022/04/01 06:06:27;;;;;;;;;;;;;;;0.40;82.16;99319.47;5062198;28;19909;-56
2022/04/01 06:08:55;;;;;;;;;;;;;;;0.51;82.63;99304.28;5061970;28;19921;-55
2022/04/01 06:11:29;;;;;;;;;;;;;;;0.48;82.52;99317.00;5062419;28;19917;-56
2022/04/01 06:14:02;;;;;;;;;;;;;;;0.63;82.42;99318.91;5062395;28;19924;-56
2022/04/01 06:16:28;;;;;;;;;;;;;;;0.46;82.27;99332.28;5062874;28;19920;-55
2022/04/01 06:18:59;;;;;;;;;;;;;;;0.52;82.88;99326.41;5062375;28;19912;-55
2022/04/01 06:21:25;;;;;;;;;;;;;;;0.59;82.47;99319.69;5048175;28;20554;-56
2022/04/01 06:23:50;;;;;;;;;;;;;;;0.77;81.81;99321.59;5064316;28;19955;-56
2022/04/01 06:26:16;;;;;;;;;;;;;;;0.67;81.08;99320.63;5066009;28;19921;-56
2022/04/01 06:28:47;;;;;;;;;;;;;;;0.54;83.07;99322.16;5065846;28;19909;-56
2022/04/01 06:31:13;;;;;;;;;;;;;;;0.55;82.11;99323.03;5065487;28;20152;-56
2022/04/01 06:33:49;;;;;;;;;;;;;;;0.40;82.57;99322.00;5063981;28;19920;-56
2022/04/01 06:36:17;;;;;;;;;;;;;;;0.55;83.20;99333.22;5064753;28;19912;-56
2022/04/01 06:39:01;;;;;;;;;;;;;;;0.48;82.50;99329.72;5065556;28;19909;-56
2022/04/01 06:41:40;;;;;;;;;;;;;;;0.55;82.89;99318.78;5065877;28;20217;-57
2022/04/01 06:44:06;;;;;;;;;;;;;;;0.58;82.79;99325.63;5065504;28;19909;-56
2022/04/01 06:46:31;;;;;;;;;;;;;;;0.54;82.43;99326.41;5065051;28;19986;-57
2022/04/01 06:48:57;;;;;;;;;;;;;;;0.55;82.73;99323.88;5063855;28;19909;-56
2022/04/01 06:51:22;;;;;;;;;;;;;;;0.78;82.26;99318.22;5062100;28;20093;-56
2022/04/01 06:53:47;;;;;;;;;;;;;;;0.79;82.28;99320.78;5062506;28;19992;-57
2022/04/01 06:56:13;;;;;;;;;;;;;;;1.01;81.78;99323.59;5063375;28;20192;-56
2022/04/01 06:58:38;;;;;;;;;;;;;;;0.81;81.69;99316.59;5064943;28;19912;-56
2022/04/01 07:01:04;;;;;;;;;;;;;;;0.78;81.58;99316.53;5063948;28;20141;-57
2022/04/01 07:03:30;;;;;;;;;;;;;;;0.98;81.60;99316.78;5064438;28;19916;-56
2022/04/01 07:05:55;;;;;;;;;;;;;;;1.07;80.60;99312.59;5062557;28;19920;-57
2022/04/01 07:08:21;;;;;;;;;;;;;;;1.16;80.20;99316.09;5061962;28;20144;-58
2022/04/01 07:10:47;;;;;;;;;;;;;;;1.07;80.74;99313.47;5061930;28;19916;-56
2022/04/01 07:13:12;;;;;;;;;;;;;;;0.92;80.56;99321.78;5062357;28;19939;-56
2022/04/01 07:15:37;;;;;;;;;;;;;;;1.04;80.61;99313.41;5062192;28;19920;-57
2022/04/01 07:18:03;;;;;;;;;;;;;;;1.10;80.28;99310.06;5062371;28;20440;-57
2022/04/01 07:20:29;;;;;;;;;;;;;;;1.31;79.69;99305.22;5063268;28;19916;-56
2022/04/01 07:22:55;;;;;;;;;;;;;;;1.29;79.52;99314.53;5062746;28;19944;-55
2022/04/01 07:25:21;;;;;;;;;;;;;;;1.45;78.91;99320.63;5064818;28;19979;-56
2022/04/01 07:27:46;;;;;;;;;;;;;;;1.52;78.75;99313.91;5064672;28;19909;-56
2022/04/01 07:30:12;;;;;;;;;;;;;;;1.34;78.69;99317.13;5063152;28;20016;-57
2022/04/01 07:32:39;;;;;;;;;;;;;;;1.41;78.30;99318.94;5043510;28;20005;-57
2022/04/01 07:35:07;;;;;;;;;;;;;;;1.19;78.66;99320.38;5060842;28;19956;-57
2022/04/01 07:37:33;;;;;;;;;;;;;;;1.35;78.95;99313.75;5060162;28;19940;-56
2022/04/01 07:39:59;;;;;;;;;;;;;;;1.37;78.40;99317.19;5060891;28;19954;-57
2022/04/01 07:42:26;;;;;;;;;;;;;;;1.54;77.54;99320.75;5060854;28;19917;-56
2022/04/01 07:44:51;;;;;;;;;;;;;;;1.54;77.76;99325.84;5061713;28;19916;-56
2022/04/01 07:47:18;;;;;;;;;;;;;;;1.81;77.51;99324.38;5062925;28;19908;-57
2022/04/01 07:49:44;;;;;;;;;;;;;;;1.58;77.02;99321.59;5063792;28;19923;-56
2022/04/01 07:52:11;;;;;;;;;;;;;;;2.12;76.35;99313.53;5063039;28;19940;-56
2022/04/01 07:54:37;;;;;;;;;;;;;;;1.98;74.57;99323.63;5064535;28;20197;-56
2022/04/01 07:57:03;;;;;;;;;;;;;;;2.18;73.48;99311.88;5064763;28;19908;-56
2022/04/01 07:59:29;;;;;;;;;;;;;;;2.18;73.82;99309.31;5064344;28;19909;-55
2022/04/01 08:01:54;;;;;;;;;;;;;;;2.19;73.37;99305.06;5064703;28;19976;-56
2022/04/01 08:04:20;;;;;;;;;;;;;;;2.46;73.29;99306.91;5064623;28;19915;-56
2022/04/01 08:06:45;;;;;;;;;;;;;;;2.41;73.29;99304.34;5064471;28;19915;-56
2022/04/01 08:09:11;;;;;;;;;;;;;;;2.73;72.88;99313.84;5064276;28;19931;-56
2022/04/01 08:11:36;;;;;;;;;;;;;;;2.82;70.80;99318.16;5062186;28;19909;-56
2022/04/01 08:14:02;;;;;;;;;;;;;;;2.52;70.54;99324.84;5063836;28;20105;-57
2022/04/01 08:16:27;;;;;;;;;;;;;;;2.36;70.91;99307.72;5063438;28;19912;-56
2022/04/01 08:18:52;;;;;;;;;;;;;;;2.40;71.33;99312.00;5063798;28;20113;-56
2022/04/01 08:21:18;;;;;;;;;;;;;;;2.76;70.50;99306.22;5067338;28;20011;-56
2022/04/01 08:23:43;;;;;;;;;;;;;;;2.54;70.06;99317.19;5066695;28;19974;-57
2022/04/01 08:26:10;;;;;;;;;;;;;;;2.42;71.23;99312.84;5063283;28;20197;-57
2022/04/01 08:28:36;;;;;;;;;;;;;;;2.45;70.16;99312.00;5063671;28;20252;-56
2022/04/01 08:31:03;;;;;;;;;;;;;;;2.18;70.49;99282.91;5062375;28;19916;-56
2022/04/01 08:33:28;;;;;;;;;;;;;;;2.14;70.58;99315.25;5062377;28;19970;-55
2022/04/01 08:35:53;;;;;;;;;;;;;;;2.40;71.13;99312.00;5062541;28;20201;-56
2022/04/01 08:38:19;;;;;;;;;;;;;;;2.46;70.39;99318.84;5071537;28;20276;-57
2022/04/01 08:40:44;;;;;;;;;;;;;;;2.64;70.39;99310.41;5066570;28;19983;-56
2022/04/01 08:43:10;;;;;;;;;;;;;;;2.64;70.86;99310.41;5063323;28;19909;-57
2022/04/01 08:45:39;;;;;;;;;;;;;;;2.50;69.24;99318.00;5062464;28;19918;-58
2022/04/01 08:48:06;;;;;;;;;;;;;;;2.75;70.20;99311.28;5062953;28;19909;-56
2022/04/01 08:50:32;;;;;;;;;;;;;;;2.96;68.09;99317.34;5062800;28;19916;-57
2022/04/01 08:52:58;;;;;;;;;;;;;;;2.96;67.67;99320.75;5067616;28;19998;-56
2022/04/01 08:55:23;;;;;;;;;;;;;;;3.03;67.80;99324.19;5083620;28;19943;-56
2022/04/01 08:57:50;;;;;;;;;;;;;;;3.08;67.29;99314.84;5054278;28;19983;-57
2022/04/01 09:00:15;;;;;;;;;;;;;;;3.19;65.89;99318.28;5062807;28;20223;-56
2022/04/01 09:02:41;;;;;;;;;;;;;;;3.05;66.56;99315.69;5063184;28;19936;-55
2022/04/01 09:05:07;;;;;;;;;;;;;;;3.49;66.04;99314.03;5062361;28;19917;-57
2022/04/01 09:07:33;;;;;;;;;;;;;;;4.00;66.71;99318.34;5062574;28;19909;-56
2022/04/01 09:10:02;;;;;;;;;;;;;;;4.04;62.43;99313.22;5064671;28;19930;-56
2022/04/01 09:12:31;;;;;;;;;;;;;;;3.50;64.62;99322.59;5072687;28;20260;-56
2022/04/01 09:14:57;;;;;;;;;;;;;;;3.57;65.73;99319.19;5068140;28;19924;-56
2022/04/01 09:17:38;;;;;;;;;;;;;;;3.23;64.04;99332.78;5064128;28;19959;-57
2022/04/01 09:20:06;;;;;;;;;;;;;;;3.28;64.62;99323.41;5062009;28;19995;-57
2022/04/01 09:22:32;;;;;;;;;;;;;;;3.45;64.37;99327.72;5060985;28;20338;-57
2022/04/01 09:25:05;;;;;;;;;;;;;;;3.44;63.55;99333.69;5062022;28;19915;-56
2022/04/01 09:27:45;;;;;;;;;;;;;;;3.56;63.88;99327.72;5061699;28;20272;-57
2022/04/01 09:30:13;;;;;;;;;;;;;;;3.67;63.81;99318.34;5058245;28;19908;-56
2022/04/01 09:32:46;;;;;;;;;;;;;;;3.64;62.11;99315.78;5042108;28;19909;-56
2022/04/01 09:35:11;;;;;;;;;;;;;;;3.48;62.42;99326.84;5061075;28;19924;-57
2022/04/01 09:37:41;;;;;;;;;;;;;;;3.31;62.12;99317.44;5062299;28;19917;-56
2022/04/01 09:40:07;;;;;;;;;;;;;;;3.39;62.57;99325.13;5062373;28;19939;-57
2022/04/01 09:42:33;;;;;;;;;;;;;;;3.36;62.22;99332.81;5062248;28;19909;-57
2022/04/01 09:44:59;;;;;;;;;;;;;;;3.24;63.32;99313.19;5062335;28;19917;-57
2022/04/01 09:47:24;;;;;;;;;;;;;;;3.43;63.28;99316.59;5062431;28;19908;-57
2022/04/01 09:49:52;;;;;;;;;;;;;;;3.58;63.59;99314.06;5061360;28;19932;-55
2022/04/01 09:52:20;;;;;;;;;;;;;;;3.79;62.09;99313.22;5062043;28;19909;-56
2022/04/01 09:54:50;;;;;;;;;;;;;;;3.89;61.56;99300.41;5066441;28;19920;-57
2022/04/01 09:57:16;;;;;;;;;;;;;;;3.76;60.71;99305.56;5061845;28;19975;-57
2022/04/01 09:59:42;;;;;;;;;;;;;;;3.73;61.64;99291.88;5064145;28;19950;-57
2022/04/01 10:02:08;;;;;;;;;;;;;;;4.00;60.63;99282.47;5065894;28;19915;-56
2022/04/01 10:04:33;;;;;;;;;;;;;;;3.84;60.27;99282.50;5066069;28;19917;-57
2022/04/01 10:07:00;;;;;;;;;;;;;;;3.90;61.09;99287.59;5065831;28;19916;-56
2022/04/01 10:09:26;;;;;;;;;;;;;;;4.25;59.81;99281.56;5065933;28;19908;-56
2022/04/01 10:11:52;;;;;;;;;;;;;;;4.16;60.42;99284.13;5066116;28;19936;-57
2022/04/01 10:14:27;;;;;;;;;;;;;;;4.53;58.05;99278.91;5065720;28;19912;-57
2022/04/01 10:16:54;;;;;;;;;;;;;;;4.37;57.82;99292.66;5066113;28;19987;-57
2022/04/01 10:19:22;;;;;;;;;;;;;;;3.91;58.99;99293.59;5064834;28;19913;-57
2022/04/01 10:21:54;;;;;;;;;;;;;;;3.97;58.74;99291.84;5065742;28;19921;-57
2022/04/01 10:24:29;;;;;;;;;;;;;;;4.11;59.43;99278.19;5064776;28;19916;-57
2022/04/01 10:26:55;;;;;;;;;;;;;;;4.26;57.84;99278.16;5065764;28;20131;-56
2022/04/01 10:29:21;;;;;;;;;;;;;;;4.01;57.51;99273.94;5064845;28;19955;-56
2022/04/01 10:31:53;;;;;;;;;;;;;;;3.98;57.09;99272.22;5065797;28;20040;-57
2022/04/01 10:34:21;;;;;;;;;;;;;;;4.21;57.12;99264.50;5065467;28;19909;-58
2022/04/01 10:36:53;;;;;;;;;;;;;;;4.45;55.78;99261.00;5064985;28;19921;-57
2022/04/01 10:39:18;;;;;;;;;;;;;;;4.71;57.47;99256.63;5065442;28;19915;-58
2022/04/01 10:42:03;;;;;;;;;;;;;;;4.75;55.81;99259.16;5064458;28;20177;-55
2022/04/01 10:44:44;;;;;;;;;;;;;;;4.88;57.13;99247.13;5065608;28;19909;-57
2022/04/01 10:47:10;;;;;;;;;;;;;;;4.69;55.73;99254.09;5065447;28;19963;-57
2022/04/01 10:52:21;;;;;;;;;;;;;;;4.60;55.08;99252.41;5065558;28;19978;-56
2022/04/01 10:55:07;;;;;;;;;;;;;;;4.71;54.85;99236.97;5079055;28;19908;-56
2022/04/01 10:57:37;;;;;;;;;;;;;;;4.97;54.46;99233.41;5064970;28;19908;-56
2022/04/01 11:00:14;;;;;;;;;;;;;;;5.23;54.75;99229.81;5065093;28;19912;-57
2022/04/01 11:02:39;;;;;;;;;;;;;;;5.19;54.16;99234.97;5064028;28;19916;-57
2022/04/01 11:05:23;;;;;;;;;;;;;;;5.26;54.38;99224.63;5065155;28;19916;-57
2022/04/01 11:08:08;;;;;;;;;;;;;;;5.04;54.01;99232.50;5063504;28;19917;-57
2022/04/01 11:10:34;;;;;;;;;;;;;;;5.20;53.84;99228.09;5045850;28;19912;-54
2022/04/01 11:12:59;;;;;;;;;;;;;;;5.24;53.84;99223.81;5064946;28;20010;-56
2022/04/01 11:15:26;;;;;;;;;;;;;;;5.25;54.73;99222.97;5065192;28;19912;-59
2022/04/01 11:17:57;;;;;;;;;;;;;;;5.59;53.98;99212.41;5065196;28;19963;-58
2022/04/01 11:20:29;;;;;;;;;;;;;;;5.70;53.10;99216.59;5064486;28;19947;-56
2022/04/01 11:22:58;;;;;;;;;;;;;;;5.53;53.12;99203.06;5064418;28;19915;-56
2022/04/01 11:25:23;;;;;;;;;;;;;;;5.59;52.90;99204.72;5064066;28;19909;-57
2022/04/01 11:28:03;;;;;;;;;;;;;;;4.98;52.39;99200.03;5057841;28;19916;-57
2022/04/01 11:30:30;;;;;;;;;;;;;;;5.19;53.04;99208.44;5048275;28;19909;-56
2022/04/01 11:32:57;;;;;;;;;;;;;;;5.12;52.93;99194.81;5064056;28;19987;-56
2022/04/01 11:35:28;;;;;;;;;;;;;;;5.33;52.33;99191.22;5064181;28;19935;-56
2022/04/01 11:37:53;;;;;;;;;;;;;;;5.51;51.76;99181.66;5063673;28;19940;-56
2022/04/01 11:40:22;;;;;;;;;;;;;;;5.59;51.28;99187.56;5063829;28;19931;-56
2022/04/01 11:43:02;;;;;;;;;;;;;;;5.66;51.94;99172.97;5064339;28;19951;-56
2022/04/01 11:45:32;;;;;;;;;;;;;;;5.73;51.58;99169.47;5057345;28;20096;-56
2022/04/01 11:47:57;;;;;;;;;;;;;;;5.69;51.03;99168.63;5064583;28;19913;-56
2022/04/01 11:50:24;;;;;;;;;;;;;;;5.62;50.40;99179.00;5063779;28;20365;-56
2022/04/01 11:52:52;;;;;;;;;;;;;;;5.62;50.79;99169.56;5068332;28;19917;-56
2022/04/01 11:55:18;;;;;;;;;;;;;;;5.42;50.38;99161.22;5073732;28;19976;-56
2022/04/01 11:57:44;;;;;;;;;;;;;;;5.01;50.69;99176.91;5064001;28;19924;-56
2022/04/01 12:00:13;;;;;;;;;;;;;;;5.10;51.64;99164.88;5063749;28;19944;-57
2022/04/01 12:02:39;;;;;;;;;;;;;;;5.12;50.05;99152.91;5064067;28;19919;-57
2022/04/01 12:05:05;;;;;;;;;;;;;;;5.25;50.34;99146.78;5063263;28;19908;-56
2022/04/01 12:10:18;;;;;;;;;;;;;;;5.04;50.46;99146.97;5062017;28;20189;-58
2022/04/01 12:12:58;;;;;;;;;;;;;;;5.13;49.78;99137.47;5062652;28;20225;-56
2022/04/01 12:15:34;;;;;;;;;;;;;;;5.21;49.45;99134.84;5061889;28;19921;-62
2022/04/01 12:18:00;;;;;;;;;;;;;;;5.31;49.88;99121.06;5063078;28;19916;-56
2022/04/01 12:20:28;;;;;;;;;;;;;;;5.32;49.66;99127.06;5062033;28;19911;-57
2022/04/01 12:22:54;;;;;;;;;;;;;;;5.56;48.51;99125.97;5062238;28;19915;-57
2022/04/01 12:25:19;;;;;;;;;;;;;;;5.44;49.25;99126.09;5062527;28;19908;-56
2022/04/01 12:28:02;;;;;;;;;;;;;;;5.27;49.66;99126.22;5062358;28;19912;-56
2022/04/01 12:30:27;;;;;;;;;;;;;;;5.66;49.57;99119.03;5062324;28;19908;-57
2022/04/01 12:32:56;;;;;;;;;;;;;;;5.85;49.66;99120.50;5062683;28;19988;-60
2022/04/01 12:35:25;;;;;;;;;;;;;;;5.94;49.27;99121.25;5062780;28;20255;-56
2022/04/01 12:38:02;;;;;;;;;;;;;;;6.05;48.97;99117.72;5062070;28;20189;-57
2022/04/01 12:40:32;;;;;;;;;;;;;;;5.87;48.30;99102.50;5062377;28;19917;-57
2022/04/01 12:42:58;;;;;;;;;;;;;;;5.83;49.71;99114.53;5059139;28;19916;-58
2022/04/01 12:45:23;;;;;;;;;;;;;;;5.72;48.41;99115.53;5060501;28;19913;-56
2022/04/01 12:47:49;;;;;;;;;;;;;;;5.62;48.69;99110.47;5062526;28;20193;-57
2022/04/01 12:50:34;;;;;;;;;;;;;;;5.44;47.56;99113.25;5061534;28;19917;-57
2022/04/01 12:53:09;;;;;;;;;;;;;;;5.46;48.39;99103.81;5063751;28;19915;-57
2022/04/01 12:55:35;;;;;;;;;;;;;;;5.56;49.04;99097.72;5062158;28;19909;-57
2022/04/01 12:58:00;;;;;;;;;;;;;;;5.64;47.97;99097.63;5060796;28;20141;-57
2022/04/01 13:02:25;;;;;;;6.47;2.83;;;;;;;5.58;47.89;99098.53;5062906;28;20653;-57
2022/04/01 13:04:57;;;;;;;3.83;2.70;;;;;;;5.53;48.58;99095.19;5064756;28;20353;-57
2022/04/01 13:07:33;;;;;;;6.97;2.65;;;;;;;5.12;47.24;99107.53;5057874;28;20027;-60
2022/04/01 13:10:07;;;;;;;4.32;2.80;;;;;;;5.13;47.96;99100.69;5086285;28;20016;-58
2022/04/01 13:12:34;;;;;;;4.30;2.80;;;;;;;5.09;47.95;99091.31;5099141;28;20034;-57